sensor_id;sensor_type;location;lat;lon;timestamp;pressure;altitude;pressure_sealevel;temperature;humidity
20971;BME280;10644;48.834;10.088;2023-05-27T00:01:02;97379.44;;;20.97;39.62
20971;BME280;10644;48.834;10.088;2023-05-27T00:03:28;97367.66;;;21.02;39.24
20971;BME280;10644;48.834;10.088;2023-05-27T00:05:53;97380.22;;;21.18;39.00
20971;BME280;10644;48.834;10.088;2023-05-27T00:08:19;97380.47;;;21.15;38.91
20971;BME280;10644;48.834;10.088;2023-05-27T00:10:44;97366.31;;;21.08;39.21
20971;BME280;10644;48.834;10.088;2023-05-27T00:13:10;97362.75;;;21.09;39.12
20971;BME280;10644;48.834;10.088;2023-05-27T00:15:38;97368.28;;;21.15;39.32
20971;BME280;10644;48.834;10.088;2023-05-27T00:18:03;97369.28;;;21.24;38.82
20971;BME280;10644;48.834;10.088;2023-05-27T00:20:29;97378.19;;;21.21;39.11
20971;BME280;10644;48.834;10.088;2023-05-27T00:22:55;97374.63;;;21.22;39.11
20971;BME280;10644;48.834;10.088;2023-05-27T00:25:22;97358.97;;;21.22;39.01
20971;BME280;10644;48.834;10.088;2023-05-27T00:27:48;97360.88;;;21.20;38.79
20971;BME280;10644;48.834;10.088;2023-05-27T00:30:14;97360.63;;;21.23;39.02
20971;BME280;10644;48.834;10.088;2023-05-27T00:32:39;97364.06;;;21.24;38.90
20971;BME280;10644;48.834;10.088;2023-05-27T00:35:05;97364.88;;;21.24;38.90
20971;BME280;10644;48.834;10.088;2023-05-27T00:37:34;97359.97;;;21.31;38.76
20971;BME280;10644;48.834;10.088;2023-05-27T00:39:59;97358.56;;;21.27;38.55
20971;BME280;10644;48.834;10.088;2023-05-27T00:42:25;97357.34;;;21.21;38.67
20971;BME280;10644;48.834;10.088;2023-05-27T00:44:50;97356.50;;;21.21;38.88
20971;BME280;10644;48.834;10.088;2023-05-27T00:47:17;97360.88;;;21.20;39.08
20971;BME280;10644;48.834;10.088;2023-05-27T00:49:43;97346.34;;;21.18;39.11
20971;BME280;10644;48.834;10.088;2023-05-27T00:52:09;97349.97;;;20.85;39.64
20971;BME280;10644;48.834;10.088;2023-05-27T00:54:35;97352.53;;;20.76;39.56
20971;BME280;10644;48.834;10.088;2023-05-27T00:57:00;97357.31;;;20.71;40.10
20971;BME280;10644;48.834;10.088;2023-05-27T00:59:28;97354.06;;;20.58;39.78
20971;BME280;10644;48.834;10.088;2023-05-27T01:01:54;97353.13;;;20.59;40.14
20971;BME280;10644;48.834;10.088;2023-05-27T01:04:20;97341.50;;;20.42;40.54
20971;BME280;10644;48.834;10.088;2023-05-27T01:09:46;97342.81;;;20.37;40.50
20971;BME280;10644;48.834;10.088;2023-05-27T01:14:57;97347.78;;;20.60;40.08
20971;BME280;10644;48.834;10.088;2023-05-27T01:17:24;97343.72;;;20.67;40.13
20971;BME280;10644;48.834;10.088;2023-05-27T01:19:52;97339.50;;;20.76;40.24
20971;BME280;10644;48.834;10.088;2023-05-27T01:22:19;97339.59;;;20.65;40.37
20971;BME280;10644;48.834;10.088;2023-05-27T01:24:45;97328.34;;;20.44;40.40
20971;BME280;10644;48.834;10.088;2023-05-27T01:27:11;97335.47;;;20.42;40.59
20971;BME280;10644;48.834;10.088;2023-05-27T01:29:38;97331.50;;;20.27;40.73
20971;BME280;10644;48.834;10.088;2023-05-27T01:32:15;97330.13;;;20.23;40.79
20971;BME280;10644;48.834;10.088;2023-05-27T01:34:58;97328.91;;;20.27;40.67
20971;BME280;10644;48.834;10.088;2023-05-27T01:37:29;97318.81;;;20.13;41.29
20971;BME280;10644;48.834;10.088;2023-05-27T01:39:56;97335.84;;;20.06;41.09
20971;BME280;10644;48.834;10.088;2023-05-27T01:42:22;97325.50;;;19.95;41.27
20971;BME280;10644;48.834;10.088;2023-05-27T01:44:48;97324.81;;;19.82;41.27
20971;BME280;10644;48.834;10.088;2023-05-27T01:47:14;97326.75;;;19.69;42.08
20971;BME280;10644;48.834;10.088;2023-05-27T01:49:39;97320.03;;;19.55;42.27
20971;BME280;10644;48.834;10.088;2023-05-27T01:52:05;97321.22;;;19.51;42.68
20971;BME280;10644;48.834;10.088;2023-05-27T01:54:31;97324.13;;;19.26;42.78
20971;BME280;10644;48.834;10.088;2023-05-27T01:56:57;97321.25;;;19.18;43.10
20971;BME280;10644;48.834;10.088;2023-05-27T01:59:22;97315.59;;;18.91;43.72
20971;BME280;10644;48.834;10.088;2023-05-27T02:01:47;97314.50;;;18.61;44.17
20971;BME280;10644;48.834;10.088;2023-05-27T02:04:13;97319.25;;;18.78;43.79
20971;BME280;10644;48.834;10.088;2023-05-27T02:06:38;97320.78;;;18.80;43.84
20971;BME280;10644;48.834;10.088;2023-05-27T02:09:06;97312.00;;;18.48;44.50
20971;BME280;10644;48.834;10.088;2023-05-27T02:11:32;97319.47;;;18.75;43.79
20971;BME280;10644;48.834;10.088;2023-05-27T02:13:57;97312.06;;;18.81;43.63
20971;BME280;10644;48.834;10.088;2023-05-27T02:16:24;97314.66;;;18.81;43.73
20971;BME280;10644;48.834;10.088;2023-05-27T02:18:50;97313.78;;;18.70;43.76
20971;BME280;10644;48.834;10.088;2023-05-27T02:21:16;97316.28;;;18.60;44.11
20971;BME280;10644;48.834;10.088;2023-05-27T02:23:41;97305.84;;;18.38;44.46
20971;BME280;10644;48.834;10.088;2023-05-27T02:26:06;97307.88;;;18.46;44.20
20971;BME280;10644;48.834;10.088;2023-05-27T02:28:32;97319.22;;;18.56;43.99
20971;BME280;10644;48.834;10.088;2023-05-27T02:30:59;97310.28;;;18.60;44.20
20971;BME280;10644;48.834;10.088;2023-05-27T02:33:25;97306.25;;;18.67;43.97
20971;BME280;10644;48.834;10.088;2023-05-27T02:35:50;97314.25;;;18.53;44.31
20971;BME280;10644;48.834;10.088;2023-05-27T02:38:16;97301.53;;;18.61;44.38
20971;BME280;10644;48.834;10.088;2023-05-27T02:40:41;97313.09;;;18.68;43.78
20971;BME280;10644;48.834;10.088;2023-05-27T02:43:07;97314.06;;;18.78;44.05
20971;BME280;10644;48.834;10.088;2023-05-27T02:45:34;97310.84;;;18.52;43.80
20971;BME280;10644;48.834;10.088;2023-05-27T02:48:05;97318.50;;;18.43;44.37
20971;BME280;10644;48.834;10.088;2023-05-27T02:50:31;97311.63;;;18.42;44.44
20971;BME280;10644;48.834;10.088;2023-05-27T02:53:01;97325.28;;;18.67;44.06
20971;BME280;10644;48.834;10.088;2023-05-27T02:55:27;97308.84;;;18.21;44.87
20971;BME280;10644;48.834;10.088;2023-05-27T02:57:53;97312.88;;;18.25;44.86
20971;BME280;10644;48.834;10.088;2023-05-27T03:00:19;97311.31;;;18.23;44.89
20971;BME280;10644;48.834;10.088;2023-05-27T03:02:47;97314.22;;;18.42;44.59
20971;BME280;10644;48.834;10.088;2023-05-27T03:05:13;97304.34;;;18.47;44.20
20971;BME280;10644;48.834;10.088;2023-05-27T03:07:41;97311.91;;;18.50;44.46
20971;BME280;10644;48.834;10.088;2023-05-27T03:10:07;97317.66;;;18.42;44.75
20971;BME280;10644;48.834;10.088;2023-05-27T03:12:33;97304.69;;;18.19;45.33
20971;BME280;10644;48.834;10.088;2023-05-27T03:14:58;97305.50;;;18.32;45.23
20971;BME280;10644;48.834;10.088;2023-05-27T03:17:24;97307.75;;;18.36;45.32
20971;BME280;10644;48.834;10.088;2023-05-27T03:19:49;97294.50;;;18.28;44.85
20971;BME280;10644;48.834;10.088;2023-05-27T03:22:18;97307.38;;;18.41;45.14
20971;BME280;10644;48.834;10.088;2023-05-27T03:24:43;97293.94;;;18.36;44.73
20971;BME280;10644;48.834;10.088;2023-05-27T03:27:10;97301.44;;;18.28;45.13
20971;BME280;10644;48.834;10.088;2023-05-27T03:29:37;97307.16;;;18.33;44.72
20971;BME280;10644;48.834;10.088;2023-05-27T03:32:02;97300.66;;;18.38;45.04
20971;BME280;10644;48.834;10.088;2023-05-27T03:34:30;97303.44;;;18.24;45.17
20971;BME280;10644;48.834;10.088;2023-05-27T03:36:55;97295.31;;;18.29;45.06
20971;BME280;10644;48.834;10.088;2023-05-27T03:39:21;97301.97;;;18.33;45.02
20971;BME280;10644;48.834;10.088;2023-05-27T03:41:46;97313.44;;;18.52;45.01
20971;BME280;10644;48.834;10.088;2023-05-27T03:44:12;97306.00;;;18.48;45.05
20971;BME280;10644;48.834;10.088;2023-05-27T03:46:37;97303.84;;;18.42;45.06
20971;BME280;10644;48.834;10.088;2023-05-27T03:49:03;97290.88;;;18.42;45.21
20971;BME280;10644;48.834;10.088;2023-05-27T03:51:28;97298.47;;;18.56;44.94
20971;BME280;10644;48.834;10.088;2023-05-27T03:53:54;97300.22;;;18.66;44.57
20971;BME280;10644;48.834;10.088;2023-05-27T03:56:20;97313.22;;;18.77;44.64
20971;BME280;10644;48.834;10.088;2023-05-27T03:58:45;97298.84;;;18.84;44.55
20971;BME280;10644;48.834;10.088;2023-05-27T04:01:11;97306.84;;;18.81;44.49
20971;BME280;10644;48.834;10.088;2023-05-27T04:03:37;97293.16;;;18.68;44.63
20971;BME280;10644;48.834;10.088;2023-05-27T04:06:05;97309.69;;;18.67;45.02
20971;BME280;10644;48.834;10.088;2023-05-27T04:08:33;97301.16;;;18.54;45.03
20971;BME280;10644;48.834;10.088;2023-05-27T04:10:58;97302.00;;;18.55;44.91
20971;BME280;10644;48.834;10.088;2023-05-27T04:13:33;97296.09;;;18.64;44.43
20971;BME280;10644;48.834;10.088;2023-05-27T04:16:29;97304.47;;;18.78;44.29
20971;BME280;10644;48.834;10.088;2023-05-27T04:22:32;97305.78;;;18.73;45.05
20971;BME280;10644;48.834;10.088;2023-05-27T04:24:57;97301.53;;;18.61;45.31
20971;BME280;10644;48.834;10.088;2023-05-27T04:30:53;97306.09;;;18.35;45.38
20971;BME280;10644;48.834;10.088;2023-05-27T04:33:32;97301.00;;;18.34;45.71
20971;BME280;10644;48.834;10.088;2023-05-27T04:35:59;97319.06;;;18.12;46.37
20971;BME280;10644;48.834;10.088;2023-05-27T04:39:17;97299.97;;;18.13;46.33
20971;BME280;10644;48.834;10.088;2023-05-27T04:41:43;97308.72;;;18.23;46.09
20971;BME280;10644;48.834;10.088;2023-05-27T04:44:08;97312.50;;;18.30;45.97
20971;BME280;10644;48.834;10.088;2023-05-27T04:46:39;97317.56;;;18.44;45.42
20971;BME280;10644;48.834;10.088;2023-05-27T04:49:08;97317.56;;;18.55;45.26
20971;BME280;10644;48.834;10.088;2023-05-27T04:51:36;97306.72;;;18.61;45.04
20971;BME280;10644;48.834;10.088;2023-05-27T04:54:14;97311.44;;;18.67;45.39
20971;BME280;10644;48.834;10.088;2023-05-27T04:56:39;97311.34;;;18.68;45.14
20971;BME280;10644;48.834;10.088;2023-05-27T04:59:26;97308.59;;;18.70;44.98
20971;BME280;10644;48.834;10.088;2023-05-27T05:02:15;97317.31;;;18.58;45.21
20971;BME280;10644;48.834;10.088;2023-05-27T05:05:11;97309.31;;;18.61;45.13
20971;BME280;10644;48.834;10.088;2023-05-27T05:07:53;97309.97;;;18.41;45.09
20971;BME280;10644;48.834;10.088;2023-05-27T05:10:19;97302.94;;;18.19;45.91
20971;BME280;10644;48.834;10.088;2023-05-27T05:12:45;97303.50;;;18.12;45.35
20971;BME280;10644;48.834;10.088;2023-05-27T05:15:11;97310.50;;;17.88;45.45
20971;BME280;10644;48.834;10.088;2023-05-27T05:17:36;97300.03;;;17.66;46.17
20971;BME280;10644;48.834;10.088;2023-05-27T05:20:02;97309.41;;;17.56;46.54
20971;BME280;10644;48.834;10.088;2023-05-27T05:22:28;97307.84;;;17.53;46.60
20971;BME280;10644;48.834;10.088;2023-05-27T05:24:54;97322.66;;;17.64;46.57
20971;BME280;10644;48.834;10.088;2023-05-27T05:27:19;97314.25;;;17.84;46.00
20971;BME280;10644;48.834;10.088;2023-05-27T05:29:45;97310.13;;;17.81;46.41
20971;BME280;10644;48.834;10.088;2023-05-27T05:32:13;97314.34;;;17.82;46.06
20971;BME280;10644;48.834;10.088;2023-05-27T05:34:39;97310.72;;;17.85;46.08
20971;BME280;10644;48.834;10.088;2023-05-27T05:37:05;97308.56;;;18.02;45.34
20971;BME280;10644;48.834;10.088;2023-05-27T05:39:31;97311.84;;;18.04;45.40
20971;BME280;10644;48.834;10.088;2023-05-27T05:41:57;97318.28;;;17.88;45.87
20971;BME280;10644;48.834;10.088;2023-05-27T05:44:23;97308.72;;;17.88;45.64
20971;BME280;10644;48.834;10.088;2023-05-27T05:46:51;97304.09;;;18.15;45.40
20971;BME280;10644;48.834;10.088;2023-05-27T05:49:18;97312.25;;;18.11;45.30
20971;BME280;10644;48.834;10.088;2023-05-27T05:51:44;97304.81;;;18.06;45.56
20971;BME280;10644;48.834;10.088;2023-05-27T05:54:09;97303.72;;;17.98;45.49
20971;BME280;10644;48.834;10.088;2023-05-27T05:56:35;97294.13;;;18.22;45.32
20971;BME280;10644;48.834;10.088;2023-05-27T05:59:00;97290.81;;;18.20;45.13
20971;BME280;10644;48.834;10.088;2023-05-27T06:01:26;97295.13;;;18.32;44.81
20971;BME280;10644;48.834;10.088;2023-05-27T06:03:54;97299.47;;;18.31;45.18
20971;BME280;10644;48.834;10.088;2023-05-27T06:06:21;97304.78;;;18.41;44.63
20971;BME280;10644;48.834;10.088;2023-05-27T06:08:49;97303.41;;;18.59;44.62
20971;BME280;10644;48.834;10.088;2023-05-27T06:11:16;97295.50;;;18.60;44.11
20971;BME280;10644;48.834;10.088;2023-05-27T06:13:42;97304.47;;;18.78;44.18
20971;BME280;10644;48.834;10.088;2023-05-27T06:16:07;97312.88;;;18.82;44.20
20971;BME280;10644;48.834;10.088;2023-05-27T06:18:32;97312.41;;;18.77;44.01
20971;BME280;10644;48.834;10.088;2023-05-27T06:20:58;97315.22;;;18.85;44.02
20971;BME280;10644;48.834;10.088;2023-05-27T06:23:23;97309.09;;;18.75;44.38
20971;BME280;10644;48.834;10.088;2023-05-27T06:25:49;97304.50;;;19.00;43.78
20971;BME280;10644;48.834;10.088;2023-05-27T06:28:16;97303.69;;;19.00;43.73
20971;BME280;10644;48.834;10.088;2023-05-27T06:30:41;97300.34;;;18.87;43.87
20971;BME280;10644;48.834;10.088;2023-05-27T06:33:08;97302.84;;;18.77;44.29
20971;BME280;10644;48.834;10.088;2023-05-27T06:35:33;97301.31;;;18.86;43.81
20971;BME280;10644;48.834;10.088;2023-05-27T06:37:59;97308.38;;;19.17;43.40
20971;BME280;10644;48.834;10.088;2023-05-27T06:40:24;97306.50;;;19.30;43.08
20971;BME280;10644;48.834;10.088;2023-05-27T06:42:50;97301.88;;;19.33;43.38
20971;BME280;10644;48.834;10.088;2023-05-27T06:45:15;97288.31;;;19.30;43.20
20971;BME280;10644;48.834;10.088;2023-05-27T06:47:41;97304.84;;;19.40;43.24
20971;BME280;10644;48.834;10.088;2023-05-27T06:50:06;97294.66;;;19.48;42.88
20971;BME280;10644;48.834;10.088;2023-05-27T06:52:32;97287.38;;;19.31;43.37
20971;BME280;10644;48.834;10.088;2023-05-27T06:54:57;97287.56;;;19.50;43.23
20971;BME280;10644;48.834;10.088;2023-05-27T06:57:25;97297.91;;;19.72;42.62
20971;BME280;10644;48.834;10.088;2023-05-27T06:59:50;97288.41;;;19.82;42.48
20971;BME280;10644;48.834;10.088;2023-05-27T07:02:18;97292.59;;;19.94;42.13
20971;BME280;10644;48.834;10.088;2023-05-27T07:04:43;97292.84;;;19.70;42.92
20971;BME280;10644;48.834;10.088;2023-05-27T07:07:09;97292.59;;;19.62;43.20
20971;BME280;10644;48.834;10.088;2023-05-27T07:09:34;97302.28;;;19.71;43.16
20971;BME280;10644;48.834;10.088;2023-05-27T07:12:01;97297.38;;;19.89;42.79
20971;BME280;10644;48.834;10.088;2023-05-27T07:14:27;97305.13;;;20.11;42.36
20971;BME280;10644;48.834;10.088;2023-05-27T07:16:52;97303.53;;;20.19;41.83
20971;BME280;10644;48.834;10.088;2023-05-27T07:19:17;97312.63;;;19.82;42.36
20971;BME280;10644;48.834;10.088;2023-05-27T07:21:43;97310.31;;;19.68;42.69
20971;BME280;10644;48.834;10.088;2023-05-27T07:24:11;97308.19;;;19.62;42.74
20971;BME280;10644;48.834;10.088;2023-05-27T07:26:37;97311.81;;;19.82;42.64
20971;BME280;10644;48.834;10.088;2023-05-27T07:29:02;97300.78;;;20.21;42.28
20971;BME280;10644;48.834;10.088;2023-05-27T07:31:28;97300.94;;;20.40;41.37
20971;BME280;10644;48.834;10.088;2023-05-27T07:33:54;97298.63;;;20.26;42.22
20971;BME280;10644;48.834;10.088;2023-05-27T07:36:19;97302.03;;;20.06;42.72
20971;BME280;10644;48.834;10.088;2023-05-27T07:38:45;97303.97;;;19.93;42.48
20971;BME280;10644;48.834;10.088;2023-05-27T07:41:10;97305.53;;;19.84;43.02
20971;BME280;10644;48.834;10.088;2023-05-27T07:43:38;97304.84;;;20.14;42.87
20971;BME280;10644;48.834;10.088;2023-05-27T07:46:03;97298.25;;;20.10;42.56
20971;BME280;10644;48.834;10.088;2023-05-27T07:48:29;97306.00;;;20.21;42.53
20971;BME280;10644;48.834;10.088;2023-05-27T07:50:55;97312.41;;;20.58;42.34
20971;BME280;10644;48.834;10.088;2023-05-27T07:53:20;97301.53;;;20.73;41.78
20971;BME280;10644;48.834;10.088;2023-05-27T07:55:46;97309.81;;;20.88;41.51
20971;BME280;10644;48.834;10.088;2023-05-27T07:58:11;97302.59;;;20.91;41.27
20971;BME280;10644;48.834;10.088;2023-05-27T08:00:36;97296.94;;;21.07;41.27
20971;BME280;10644;48.834;10.088;2023-05-27T08:03:02;97295.59;;;21.22;40.74
20971;BME280;10644;48.834;10.088;2023-05-27T08:05:27;97295.97;;;21.08;40.97
20971;BME280;10644;48.834;10.088;2023-05-27T08:07:52;97290.75;;;21.08;41.42
20971;BME280;10644;48.834;10.088;2023-05-27T08:10:18;97292.53;;;21.17;41.10
20971;BME280;10644;48.834;10.088;2023-05-27T08:12:43;97286.00;;;21.22;41.23
20971;BME280;10644;48.834;10.088;2023-05-27T08:15:08;97277.78;;;21.27;40.62
20971;BME280;10644;48.834;10.088;2023-05-27T08:17:34;97278.88;;;21.34;40.60
20971;BME280;10644;48.834;10.088;2023-05-27T08:19:59;97270.81;;;21.46;40.11
20971;BME280;10644;48.834;10.088;2023-05-27T08:22:25;97263.41;;;21.42;40.45
20971;BME280;10644;48.834;10.088;2023-05-27T08:24:50;97262.44;;;21.43;40.32
20971;BME280;10644;48.834;10.088;2023-05-27T08:27:17;97249.81;;;21.67;39.71
20971;BME280;10644;48.834;10.088;2023-05-27T08:29:43;97263.84;;;21.66;39.46
20971;BME280;10644;48.834;10.088;2023-05-27T08:32:09;97267.13;;;21.58;39.56
20971;BME280;10644;48.834;10.088;2023-05-27T08:34:34;97260.69;;;21.62;38.77
20971;BME280;10644;48.834;10.088;2023-05-27T08:37:00;97267.66;;;21.62;39.51
20971;BME280;10644;48.834;10.088;2023-05-27T08:39:26;97251.22;;;21.90;38.78
20971;BME280;10644;48.834;10.088;2023-05-27T08:41:52;97252.63;;;21.75;39.23
20971;BME280;10644;48.834;10.088;2023-05-27T08:44:21;97249.31;;;22.01;38.71
20971;BME280;10644;48.834;10.088;2023-05-27T08:46:48;97249.03;;;22.04;38.75
20971;BME280;10644;48.834;10.088;2023-05-27T08:49:14;97248.19;;;22.13;38.19
20971;BME280;10644;48.834;10.088;2023-05-27T08:51:40;97247.38;;;22.22;38.38
20971;BME280;10644;48.834;10.088;2023-05-27T08:54:07;97239.78;;;22.29;38.17
20971;BME280;10644;48.834;10.088;2023-05-27T08:56:35;97245.69;;;22.50;37.84
20971;BME280;10644;48.834;10.088;2023-05-27T08:59:01;97239.81;;;22.75;37.33
20971;BME280;10644;48.834;10.088;2023-05-27T09:01:26;97247.06;;;22.90;37.36
20971;BME280;10644;48.834;10.088;2023-05-27T09:03:54;97240.75;;;23.10;37.20
20971;BME280;10644;48.834;10.088;2023-05-27T09:06:20;97239.69;;;23.03;37.52
20971;BME280;10644;48.834;10.088;2023-05-27T09:08:45;97239.63;;;23.22;37.37
20971;BME280;10644;48.834;10.088;2023-05-27T09:11:20;97238.59;;;23.33;36.91
20971;BME280;10644;48.834;10.088;2023-05-27T09:13:46;97229.69;;;23.26;36.91
20971;BME280;10644;48.834;10.088;2023-05-27T09:16:11;97238.66;;;23.23;36.78
20971;BME280;10644;48.834;10.088;2023-05-27T09:18:36;97239.19;;;23.44;37.02
20971;BME280;10644;48.834;10.088;2023-05-27T09:21:02;97234.50;;;23.48;36.83
20971;BME280;10644;48.834;10.088;2023-05-27T09:23:28;97228.06;;;23.15;37.05
20971;BME280;10644;48.834;10.088;2023-05-27T09:25:58;97228.53;;;23.38;37.15
20971;BME280;10644;48.834;10.088;2023-05-27T09:28:25;97230.97;;;23.39;36.76
20971;BME280;10644;48.834;10.088;2023-05-27T09:31:00;97224.19;;;23.81;36.65
20971;BME280;10644;48.834;10.088;2023-05-27T09:33:36;97217.91;;;24.09;36.18
20971;BME280;10644;48.834;10.088;2023-05-27T09:36:06;97215.56;;;24.24;35.60
20971;BME280;10644;48.834;10.088;2023-05-27T09:38:34;97221.19;;;24.11;35.57
20971;BME280;10644;48.834;10.088;2023-05-27T09:41:02;97221.25;;;23.94;35.67
20971;BME280;10644;48.834;10.088;2023-05-27T09:43:28;97214.38;;;23.83;35.78
20971;BME280;10644;48.834;10.088;2023-05-27T09:45:59;97213.50;;;23.75;35.54
20971;BME280;10644;48.834;10.088;2023-05-27T09:48:29;97213.22;;;23.95;35.62
20971;BME280;10644;48.834;10.088;2023-05-27T09:50:56;97218.66;;;24.02;35.07
20971;BME280;10644;48.834;10.088;2023-05-27T09:53:23;97211.84;;;24.34;34.77
20971;BME280;10644;48.834;10.088;2023-05-27T09:55:49;97206.50;;;24.18;34.63
20971;BME280;10644;48.834;10.088;2023-05-27T09:58:15;97222.63;;;24.06;34.94
20971;BME280;10644;48.834;10.088;2023-05-27T10:00:44;97203.09;;;23.65;34.76
20971;BME280;10644;48.834;10.088;2023-05-27T10:03:10;97199.66;;;23.65;34.76
20971;BME280;10644;48.834;10.088;2023-05-27T10:05:36;97202.72;;;23.60;34.29
20971;BME280;10644;48.834;10.088;2023-05-27T10:08:05;97195.34;;;23.56;34.46
20971;BME280;10644;48.834;10.088;2023-05-27T10:10:32;97196.22;;;23.82;33.92
20971;BME280;10644;48.834;10.088;2023-05-27T10:12:59;97197.94;;;24.08;34.02
20971;BME280;10644;48.834;10.088;2023-05-27T10:15:32;97199.19;;;24.22;33.57
20971;BME280;10644;48.834;10.088;2023-05-27T10:18:07;97191.75;;;24.43;33.02
20971;BME280;10644;48.834;10.088;2023-05-27T10:20:53;97192.38;;;24.62;33.32
20971;BME280;10644;48.834;10.088;2023-05-27T10:23:25;97182.25;;;24.67;33.58
20971;BME280;10644;48.834;10.088;2023-05-27T10:25:53;97193.13;;;24.55;33.16
20971;BME280;10644;48.834;10.088;2023-05-27T10:28:32;97195.31;;;24.34;34.27
20971;BME280;10644;48.834;10.088;2023-05-27T10:33:50;97183.03;;;24.60;33.04
20971;BME280;10644;48.834;10.088;2023-05-27T10:36:21;97184.69;;;24.94;32.82
20971;BME280;10644;48.834;10.088;2023-05-27T10:39:03;97181.13;;;25.19;32.68
20971;BME280;10644;48.834;10.088;2023-05-27T10:41:39;97178.09;;;25.32;31.97
20971;BME280;10644;48.834;10.088;2023-05-27T10:44:05;97189.19;;;25.18;32.44
20971;BME280;10644;48.834;10.088;2023-05-27T10:46:41;97184.28;;;25.23;32.99
20971;BME280;10644;48.834;10.088;2023-05-27T10:49:14;97185.47;;;25.28;32.51
20971;BME280;10644;48.834;10.088;2023-05-27T10:51:42;97173.19;;;25.53;32.12
20971;BME280;10644;48.834;10.088;2023-05-27T10:54:08;97172.72;;;25.49;32.12
20971;BME280;10644;48.834;10.088;2023-05-27T10:56:34;97178.78;;;25.66;31.34
20971;BME280;10644;48.834;10.088;2023-05-27T10:59:01;97175.34;;;25.65;31.24
20971;BME280;10644;48.834;10.088;2023-05-27T11:01:29;97178.78;;;25.90;31.43
20971;BME280;10644;48.834;10.088;2023-05-27T11:03:57;97169.09;;;26.14;30.66
20971;BME280;10644;48.834;10.088;2023-05-27T11:06:22;97170.22;;;26.28;30.64
20971;BME280;10644;48.834;10.088;2023-05-27T11:08:50;97159.72;;;26.28;30.12
20971;BME280;10644;48.834;10.088;2023-05-27T11:11:15;97163.38;;;26.11;30.47
20971;BME280;10644;48.834;10.088;2023-05-27T11:13:45;97162.69;;;26.17;29.64
20971;BME280;10644;48.834;10.088;2023-05-27T11:16:12;97154.03;;;26.00;29.74
20971;BME280;10644;48.834;10.088;2023-05-27T11:18:38;97152.19;;;26.01;29.19
20971;BME280;10644;48.834;10.088;2023-05-27T11:21:08;97153.69;;;25.79;29.08
20971;BME280;10644;48.834;10.088;2023-05-27T11:23:42;97155.03;;;25.99;29.19
20971;BME280;10644;48.834;10.088;2023-05-27T11:26:19;97147.75;;;26.17;29.64
20971;BME280;10644;48.834;10.088;2023-05-27T11:28:53;97150.28;;;26.65;29.13
20971;BME280;10644;48.834;10.088;2023-05-27T11:31:26;97145.94;;;26.26;29.03
20971;BME280;10644;48.834;10.088;2023-05-27T11:33:52;97141.03;;;26.07;29.23
20971;BME280;10644;48.834;10.088;2023-05-27T11:36:20;97143.97;;;26.20;29.17
20971;BME280;10644;48.834;10.088;2023-05-27T11:38:56;97125.59;;;26.20;29.35
20971;BME280;10644;48.834;10.088;2023-05-27T11:41:29;97130.72;;;26.52;29.25
20971;BME280;10644;48.834;10.088;2023-05-27T11:44:05;97123.88;;;26.35;28.07
20971;BME280;10644;48.834;10.088;2023-05-27T11:46:38;97122.56;;;26.47;28.88
20971;BME280;10644;48.834;10.088;2023-05-27T11:49:05;97114.53;;;26.79;27.97
20971;BME280;10644;48.834;10.088;2023-05-27T11:51:34;97111.59;;;27.04;27.88
20971;BME280;10644;48.834;10.088;2023-05-27T11:54:01;97119.00;;;27.09;27.43
20971;BME280;10644;48.834;10.088;2023-05-27T11:56:27;97111.38;;;27.14;27.12
20971;BME280;10644;48.834;10.088;2023-05-27T11:58:54;97109.38;;;27.24;27.43
20971;BME280;10644;48.834;10.088;2023-05-27T12:01:19;97105.47;;;27.20;26.83
20971;BME280;10644;48.834;10.088;2023-05-27T12:03:45;97103.47;;;27.44;26.42
20971;BME280;10644;48.834;10.088;2023-05-27T12:06:11;97098.41;;;27.12;26.37
20971;BME280;10644;48.834;10.088;2023-05-27T12:08:36;97102.84;;;27.12;25.59
20971;BME280;10644;48.834;10.088;2023-05-27T12:11:02;97093.72;;;27.00;26.09
20971;BME280;10644;48.834;10.088;2023-05-27T12:13:27;97099.22;;;26.90;25.79
20971;BME280;10644;48.834;10.088;2023-05-27T12:15:54;97087.94;;;27.04;25.48
20971;BME280;10644;48.834;10.088;2023-05-27T12:18:20;97084.41;;;27.20;26.78
20971;BME280;10644;48.834;10.088;2023-05-27T12:20:46;97087.16;;;26.96;27.43
20971;BME280;10644;48.834;10.088;2023-05-27T12:23:13;97074.06;;;26.88;27.71
20971;BME280;10644;48.834;10.088;2023-05-27T12:25:39;97077.63;;;26.95;27.69
20971;BME280;10644;48.834;10.088;2023-05-27T12:28:07;97074.47;;;26.99;27.33
20971;BME280;10644;48.834;10.088;2023-05-27T12:30:32;97071.47;;;26.80;28.47
20971;BME280;10644;48.834;10.088;2023-05-27T12:32:58;97065.25;;;26.73;27.97
20971;BME280;10644;48.834;10.088;2023-05-27T12:35:24;97054.56;;;27.05;27.84
20971;BME280;10644;48.834;10.088;2023-05-27T12:37:49;97054.34;;;27.37;27.85
20971;BME280;10644;48.834;10.088;2023-05-27T12:40:18;97056.91;;;27.22;27.72
20971;BME280;10644;48.834;10.088;2023-05-27T12:42:43;97054.47;;;27.21;27.77
20971;BME280;10644;48.834;10.088;2023-05-27T12:45:11;97057.41;;;26.95;27.97
20971;BME280;10644;48.834;10.088;2023-05-27T12:47:37;97060.63;;;27.05;28.28
20971;BME280;10644;48.834;10.088;2023-05-27T12:50:03;97054.81;;;26.87;28.05
20971;BME280;10644;48.834;10.088;2023-05-27T12:52:30;97046.94;;;26.87;28.38
20971;BME280;10644;48.834;10.088;2023-05-27T12:54:56;97058.88;;;26.98;28.75
20971;BME280;10644;48.834;10.088;2023-05-27T12:57:22;97055.59;;;27.41;28.46
20971;BME280;10644;48.834;10.088;2023-05-27T12:59:47;97033.28;;;27.88;27.94
20971;BME280;10644;48.834;10.088;2023-05-27T13:02:13;97041.03;;;27.90;28.23
20971;BME280;10644;48.834;10.088;2023-05-27T13:04:39;97031.78;;;27.94;28.32
20971;BME280;10644;48.834;10.088;2023-05-27T13:07:05;97038.16;;;27.77;27.62